sensor_id;sensor_type;location;lat;lon;timestamp;pressure;altitude;pressure_sealevel;temperature;humidity
70011;BME280;59543;37.950;-122.338;2022-11-15T00:00:44;101768.44;;;14.23;41.07
70011;BME280;59543;37.950;-122.338;2022-11-15T00:03:13;101769.00;;;14.26;41.38
70011;BME280;59543;37.950;-122.338;2022-11-15T00:05:40;101776.03;;;14.47;41.23
70011;BME280;59543;37.950;-122.338;2022-11-15T00:08:07;101776.91;;;14.47;40.93
70011;BME280;59543;37.950;-122.338;2022-11-15T00:10:33;101778.94;;;14.35;41.49
70011;BME280;59543;37.950;-122.338;2022-11-15T00:12:59;101780.22;;;14.31;41.20
70011;BME280;59543;37.950;-122.338;2022-11-15T00:15:25;101775.81;;;14.30;41.56
70011;BME280;59543;37.950;-122.338;2022-11-15T00:17:52;101772.59;;;14.07;42.14
70011;BME280;59543;37.950;-122.338;2022-11-15T00:20:18;101775.34;;;13.98;42.43
70011;BME280;59543;37.950;-122.338;2022-11-15T00:22:44;101778.22;;;13.77;42.85
70011;BME280;59543;37.950;-122.338;2022-11-15T00:25:10;101773.75;;;14.05;42.36
70011;BME280;59543;37.950;-122.338;2022-11-15T00:27:36;101773.25;;;13.82;42.85
70011;BME280;59543;37.950;-122.338;2022-11-15T00:30:03;101774.69;;;13.47;43.22
70011;BME280;59543;37.950;-122.338;2022-11-15T00:32:32;101781.38;;;13.53;43.81
70011;BME280;59543;37.950;-122.338;2022-11-15T00:34:58;101775.41;;;13.39;43.91
70011;BME280;59543;37.950;-122.338;2022-11-15T00:37:24;101768.84;;;13.32;44.10
70011;BME280;59543;37.950;-122.338;2022-11-15T00:39:51;101765.13;;;13.23;44.28
70011;BME280;59543;37.950;-122.338;2022-11-15T00:42:17;101767.69;;;13.15;44.78
70011;BME280;59543;37.950;-122.338;2022-11-15T00:44:43;101769.84;;;13.12;44.94
70011;BME280;59543;37.950;-122.338;2022-11-15T00:47:09;101770.53;;;13.23;44.45
70011;BME280;59543;37.950;-122.338;2022-11-15T00:49:35;101769.47;;;13.36;44.35
70011;BME280;59543;37.950;-122.338;2022-11-15T00:52:01;101776.66;;;13.06;44.37
70011;BME280;59543;37.950;-122.338;2022-11-15T00:54:28;101780.50;;;13.33;44.14
70011;BME280;59543;37.950;-122.338;2022-11-15T00:56:54;101770.81;;;13.20;44.55
70011;BME280;59543;37.950;-122.338;2022-11-15T00:59:20;101771.66;;;13.11;44.36
70011;BME280;59543;37.950;-122.338;2022-11-15T01:01:46;101773.88;;;12.77;45.65
70011;BME280;59543;37.950;-122.338;2022-11-15T01:04:13;101781.09;;;12.67;45.79
70011;BME280;59543;37.950;-122.338;2022-11-15T01:06:40;101774.69;;;12.68;46.01
70011;BME280;59543;37.950;-122.338;2022-11-15T01:09:06;101772.84;;;12.58;46.35
70011;BME280;59543;37.950;-122.338;2022-11-15T01:11:32;101768.91;;;12.42;46.29
70011;BME280;59543;37.950;-122.338;2022-11-15T01:13:59;101777.94;;;12.52;46.40
70011;BME280;59543;37.950;-122.338;2022-11-15T01:16:25;101776.31;;;12.40;46.79
70011;BME280;59543;37.950;-122.338;2022-11-15T01:18:52;101780.94;;;12.28;46.99
70011;BME280;59543;37.950;-122.338;2022-11-15T01:21:19;101782.59;;;12.19;47.41
70011;BME280;59543;37.950;-122.338;2022-11-15T01:23:45;101781.78;;;11.98;47.93
70011;BME280;59543;37.950;-122.338;2022-11-15T01:26:13;101788.81;;;11.89;48.02
70011;BME280;59543;37.950;-122.338;2022-11-15T01:28:41;101790.03;;;11.85;48.27
70011;BME280;59543;37.950;-122.338;2022-11-15T01:31:13;101783.78;;;11.84;48.27
70011;BME280;59543;37.950;-122.338;2022-11-15T01:33:40;101786.34;;;11.65;49.41
70011;BME280;59543;37.950;-122.338;2022-11-15T01:36:08;101789.69;;;11.57;49.06
70011;BME280;59543;37.950;-122.338;2022-11-15T01:38:35;101786.34;;;11.65;48.97
70011;BME280;59543;37.950;-122.338;2022-11-15T01:41:02;101796.91;;;11.57;48.86
70011;BME280;59543;37.950;-122.338;2022-11-15T01:43:30;101791.03;;;11.52;48.63
70011;BME280;59543;37.950;-122.338;2022-11-15T01:48:37;101798.03;;;11.54;48.11
70011;BME280;59543;37.950;-122.338;2022-11-15T01:51:10;101792.97;;;11.61;47.56
70011;BME280;59543;37.950;-122.338;2022-11-15T01:53:41;101801.44;;;11.56;47.61
70011;BME280;59543;37.950;-122.338;2022-11-15T01:56:15;101797.53;;;11.49;47.83
70011;BME280;59543;37.950;-122.338;2022-11-15T01:58:46;101800.47;;;11.57;47.26
70011;BME280;59543;37.950;-122.338;2022-11-15T02:01:13;101797.75;;;11.57;47.21
70011;BME280;59543;37.950;-122.338;2022-11-15T02:04:07;101805.66;;;11.70;46.84
70011;BME280;59543;37.950;-122.338;2022-11-15T02:06:30;101808.03;;;11.63;47.08
70011;BME280;59543;37.950;-122.338;2022-11-15T02:08:57;101806.13;;;11.75;46.99
70011;BME280;59543;37.950;-122.338;2022-11-15T02:11:25;101812.31;;;11.66;47.25
70011;BME280;59543;37.950;-122.338;2022-11-15T02:13:52;101819.13;;;11.70;47.25
70011;BME280;59543;37.950;-122.338;2022-11-15T02:22:21;101824.34;;;11.62;47.29
70011;BME280;59543;37.950;-122.338;2022-11-15T02:28:49;101826.03;;;11.63;46.84
70011;BME280;59543;37.950;-122.338;2022-11-15T02:33:49;101828.00;;;11.61;45.83
70011;BME280;59543;37.950;-122.338;2022-11-15T02:36:29;101833.47;;;11.50;45.71
70011;BME280;59543;37.950;-122.338;2022-11-15T02:39:05;101833.66;;;11.58;45.25
70011;BME280;59543;37.950;-122.338;2022-11-15T02:41:48;101832.78;;;11.57;45.25
70011;BME280;59543;37.950;-122.338;2022-11-15T02:44:48;101832.28;;;11.63;44.71
70011;BME280;59543;37.950;-122.338;2022-11-15T02:47:16;101837.66;;;11.63;44.94
70011;BME280;59543;37.950;-122.338;2022-11-15T02:49:49;101839.69;;;11.50;45.09
70011;BME280;59543;37.950;-122.338;2022-11-15T02:52:17;101841.94;;;11.66;45.22
70011;BME280;59543;37.950;-122.338;2022-11-15T02:54:56;101848.94;;;11.68;44.85
70011;BME280;59543;37.950;-122.338;2022-11-15T03:00:18;101851.16;;;11.96;44.46
70011;BME280;59543;37.950;-122.338;2022-11-15T03:03:16;101849.59;;;11.82;44.72
70011;BME280;59543;37.950;-122.338;2022-11-15T03:05:56;101853.47;;;11.68;45.26
70011;BME280;59543;37.950;-122.338;2022-11-15T03:08:31;101858.41;;;11.52;45.59
70011;BME280;59543;37.950;-122.338;2022-11-15T03:11:11;101861.72;;;11.55;45.34
70011;BME280;59543;37.950;-122.338;2022-11-15T03:14:00;101855.25;;;11.47;45.50
70011;BME280;59543;37.950;-122.338;2022-11-15T03:16:38;101852.69;;;11.45;45.91
70011;BME280;59543;37.950;-122.338;2022-11-15T03:19:11;101847.22;;;11.35;45.74
70011;BME280;59543;37.950;-122.338;2022-11-15T03:21:40;101852.69;;;11.45;45.73
70011;BME280;59543;37.950;-122.338;2022-11-15T03:24:08;101858.41;;;11.52;45.96
70011;BME280;59543;37.950;-122.338;2022-11-15T03:26:36;101861.72;;;11.55;45.93
70011;BME280;59543;37.950;-122.338;2022-11-15T03:29:09;101857.38;;;11.64;45.29
70011;BME280;59543;37.950;-122.338;2022-11-15T03:31:42;101865.66;;;11.51;45.45
70011;BME280;59543;37.950;-122.338;2022-11-15T03:36:51;101878.00;;;11.54;45.84
70011;BME280;59543;37.950;-122.338;2022-11-15T03:39:19;101877.53;;;11.49;46.03
70011;BME280;59543;37.950;-122.338;2022-11-15T03:42:22;101878.78;;;11.44;46.18
70011;BME280;59543;37.950;-122.338;2022-11-15T03:44:56;101873.03;;;11.38;46.02
70011;BME280;59543;37.950;-122.338;2022-11-15T03:47:38;101878.28;;;11.39;46.45
70011;BME280;59543;37.950;-122.338;2022-11-15T03:50:11;101872.78;;;11.41;46.28
70011;BME280;59543;37.950;-122.338;2022-11-15T03:52:40;101873.06;;;11.27;46.76
70011;BME280;59543;37.950;-122.338;2022-11-15T03:55:10;101871.88;;;11.19;46.88
70011;BME280;59543;37.950;-122.338;2022-11-15T03:57:36;101872.06;;;11.28;46.50
70011;BME280;59543;37.950;-122.338;2022-11-15T04:00:04;101872.72;;;11.20;46.71
70011;BME280;59543;37.950;-122.338;2022-11-15T04:02:30;101876.75;;;11.26;46.97
70011;BME280;59543;37.950;-122.338;2022-11-15T04:04:56;101882.00;;;11.27;46.79
70011;BME280;59543;37.950;-122.338;2022-11-15T04:07:23;101880.66;;;11.21;46.89
70011;BME280;59543;37.950;-122.338;2022-11-15T04:09:49;101882.59;;;11.31;46.79
70011;BME280;59543;37.950;-122.338;2022-11-15T04:12:35;101878.78;;;11.33;46.67
70011;BME280;59543;37.950;-122.338;2022-11-15T04:15:10;101889.56;;;11.33;47.19
70011;BME280;59543;37.950;-122.338;2022-11-15T04:17:44;101888.72;;;11.33;47.28
70011;BME280;59543;37.950;-122.338;2022-11-15T04:20:21;101886.66;;;11.25;47.18
70011;BME280;59543;37.950;-122.338;2022-11-15T04:23:10;101885.59;;;11.16;47.28
70011;BME280;59543;37.950;-122.338;2022-11-15T04:25:56;101894.25;;;11.20;47.20
70011;BME280;59543;37.950;-122.338;2022-11-15T04:28:24;101888.13;;;11.18;47.59
70011;BME280;59543;37.950;-122.338;2022-11-15T04:30:50;101895.97;;;11.10;47.72
70011;BME280;59543;37.950;-122.338;2022-11-15T04:33:16;101896.38;;;11.05;47.85
70011;BME280;59543;37.950;-122.338;2022-11-15T04:35:43;101891.56;;;11.20;47.87
70011;BME280;59543;37.950;-122.338;2022-11-15T04:38:10;101897.81;;;11.09;47.89
70011;BME280;59543;37.950;-122.338;2022-11-15T04:40:37;101902.34;;;11.09;47.95
70011;BME280;59543;37.950;-122.338;2022-11-15T04:43:03;101904.78;;;11.01;48.09
70011;BME280;59543;37.950;-122.338;2022-11-15T04:45:30;101902.84;;;10.91;48.41
70011;BME280;59543;37.950;-122.338;2022-11-15T04:47:56;101905.91;;;11.09;47.95
70011;BME280;59543;37.950;-122.338;2022-11-15T04:50:22;101911.91;;;10.90;48.14
70011;BME280;59543;37.950;-122.338;2022-11-15T04:52:53;101913.63;;;10.69;49.02
70011;BME280;59543;37.950;-122.338;2022-11-15T04:55:20;101922.91;;;10.76;48.87
70011;BME280;59543;37.950;-122.338;2022-11-15T04:57:46;101930.38;;;10.72;48.87
70011;BME280;59543;37.950;-122.338;2022-11-15T05:00:15;101934.41;;;10.67;48.98
70011;BME280;59543;37.950;-122.338;2022-11-15T05:02:42;101937.00;;;10.68;49.01
70011;BME280;59543;37.950;-122.338;2022-11-15T05:05:27;101937.22;;;10.88;49.80
70011;BME280;59543;37.950;-122.338;2022-11-15T05:07:53;101940.53;;;10.69;51.94
70011;BME280;59543;37.950;-122.338;2022-11-15T05:10:19;101950.00;;;10.39;54.35
70011;BME280;59543;37.950;-122.338;2022-11-15T05:12:46;101950.59;;;9.83;56.26
70011;BME280;59543;37.950;-122.338;2022-11-15T05:15:12;101954.44;;;9.68;57.07
70011;BME280;59543;37.950;-122.338;2022-11-15T05:17:38;101950.66;;;9.47;57.75
70011;BME280;59543;37.950;-122.338;2022-11-15T05:20:05;101951.38;;;9.12;59.09
70011;BME280;59543;37.950;-122.338;2022-11-15T05:22:31;101959.56;;;8.85;59.77
70011;BME280;59543;37.950;-122.338;2022-11-15T05:24:58;101960.09;;;8.64;60.11
70011;BME280;59543;37.950;-122.338;2022-11-15T05:27:24;101966.63;;;8.47;60.63
70011;BME280;59543;37.950;-122.338;2022-11-15T05:29:50;101976.84;;;8.55;60.73
70011;BME280;59543;37.950;-122.338;2022-11-15T05:32:16;101974.50;;;8.76;59.51
70011;BME280;59543;37.950;-122.338;2022-11-15T05:34:44;101973.19;;;8.69;59.88
70011;BME280;59543;37.950;-122.338;2022-11-15T05:37:10;101980.28;;;8.70;60.19
70011;BME280;59543;37.950;-122.338;2022-11-15T05:39:36;101975.22;;;8.78;59.69
70011;BME280;59543;37.950;-122.338;2022-11-15T05:42:11;101974.47;;;8.63;60.02
70011;BME280;59543;37.950;-122.338;2022-11-15T05:44:40;101986.88;;;8.39;61.39
70011;BME280;59543;37.950;-122.338;2022-11-15T05:47:10;101984.66;;;8.45;61.07
70011;BME280;59543;37.950;-122.338;2022-11-15T05:49:40;101993.56;;;8.46;60.93
70011;BME280;59543;37.950;-122.338;2022-11-15T05:52:09;101994.16;;;8.37;61.40
70011;BME280;59543;37.950;-122.338;2022-11-15T05:54:39;101992.63;;;8.33;61.50
70011;BME280;59543;37.950;-122.338;2022-11-15T05:57:05;101986.53;;;8.31;61.02
70011;BME280;59543;37.950;-122.338;2022-11-15T05:59:33;101988.31;;;8.17;61.50
70011;BME280;59543;37.950;-122.338;2022-11-15T06:01:59;101988.88;;;8.35;60.89
70011;BME280;59543;37.950;-122.338;2022-11-15T06:04:25;101986.16;;;8.50;60.23
70011;BME280;59543;37.950;-122.338;2022-11-15T06:06:52;101984.53;;;8.60;60.32
70011;BME280;59543;37.950;-122.338;2022-11-15T06:09:18;101986.81;;;8.66;59.82
70011;BME280;59543;37.950;-122.338;2022-11-15T06:11:44;101985.94;;;8.65;59.75
70011;BME280;59543;37.950;-122.338;2022-11-15T06:14:10;101992.28;;;8.52;59.93
70011;BME280;59543;37.950;-122.338;2022-11-15T06:16:36;101995.69;;;8.54;60.22
70011;BME280;59543;37.950;-122.338;2022-11-15T06:19:03;101995.69;;;8.54;60.25
70011;BME280;59543;37.950;-122.338;2022-11-15T06:21:29;101991.09;;;8.43;61.28
70011;BME280;59543;37.950;-122.338;2022-11-15T06:23:55;101995.03;;;8.10;62.20
70011;BME280;59543;37.950;-122.338;2022-11-15T06:26:21;101991.50;;;8.10;63.01
70011;BME280;59543;37.950;-122.338;2022-11-15T06:28:47;101995.25;;;8.07;63.58
70011;BME280;59543;37.950;-122.338;2022-11-15T06:31:13;101998.34;;;8.01;63.80
70011;BME280;59543;37.950;-122.338;2022-11-15T06:33:40;101994.44;;;7.92;64.12
70011;BME280;59543;37.950;-122.338;2022-11-15T06:36:09;101999.16;;;7.89;64.65
70011;BME280;59543;37.950;-122.338;2022-11-15T06:38:36;101994.06;;;7.84;64.88
70011;BME280;59543;37.950;-122.338;2022-11-15T06:41:04;101985.03;;;7.72;65.12
70011;BME280;59543;37.950;-122.338;2022-11-15T06:43:30;101993.25;;;7.69;65.49
70011;BME280;59543;37.950;-122.338;2022-11-15T06:46:01;101988.75;;;7.70;65.59
70011;BME280;59543;37.950;-122.338;2022-11-15T06:48:28;101990.59;;;7.55;65.74
70011;BME280;59543;37.950;-122.338;2022-11-15T06:50:57;101989.88;;;7.53;66.65
70011;BME280;59543;37.950;-122.338;2022-11-15T06:53:24;101990.59;;;7.55;65.96
70011;BME280;59543;37.950;-122.338;2022-11-15T06:55:50;101992.09;;;7.46;66.43
70011;BME280;59543;37.950;-122.338;2022-11-15T06:58:17;101990.25;;;7.47;66.82
70011;BME280;59543;37.950;-122.338;2022-11-15T07:00:43;101994.00;;;7.30;67.30
70011;BME280;59543;37.950;-122.338;2022-11-15T07:03:10;101982.63;;;7.26;67.61
70011;BME280;59543;37.950;-122.338;2022-11-15T07:05:36;101990.06;;;7.50;67.09
70011;BME280;59543;37.950;-122.338;2022-11-15T07:08:02;101994.75;;;7.46;67.52
70011;BME280;59543;37.950;-122.338;2022-11-15T07:10:29;101998.56;;;7.42;67.37
70011;BME280;59543;37.950;-122.338;2022-11-15T07:12:55;102002.41;;;7.24;67.92
70011;BME280;59543;37.950;-122.338;2022-11-15T07:15:24;101998.41;;;7.02;68.27
70011;BME280;59543;37.950;-122.338;2022-11-15T07:17:51;102002.44;;;6.95;68.58
70011;BME280;59543;37.950;-122.338;2022-11-15T07:20:18;101993.53;;;6.95;68.72
70011;BME280;59543;37.950;-122.338;2022-11-15T07:22:44;101993.44;;;6.82;68.79
70011;BME280;59543;37.950;-122.338;2022-11-15T07:25:13;101996.28;;;6.79;68.83
70011;BME280;59543;37.950;-122.338;2022-11-15T07:27:39;102001.81;;;6.76;68.82
70011;BME280;59543;37.950;-122.338;2022-11-15T07:30:05;102000.13;;;6.75;68.81
70011;BME280;59543;37.950;-122.338;2022-11-15T07:32:31;101997.81;;;6.69;68.62
70011;BME280;59543;37.950;-122.338;2022-11-15T07:34:57;101991.97;;;6.62;68.98
70011;BME280;59543;37.950;-122.338;2022-11-15T07:37:23;101997.41;;;6.60;69.26
70011;BME280;59543;37.950;-122.338;2022-11-15T07:39:50;101995.69;;;6.59;69.37
70011;BME280;59543;37.950;-122.338;2022-11-15T07:42:15;101997.41;;;6.60;69.40
70011;BME280;59543;37.950;-122.338;2022-11-15T07:45:00;101996.63;;;6.58;69.07
70011;BME280;59543;37.950;-122.338;2022-11-15T07:47:27;101989.94;;;6.51;68.99
70011;BME280;59543;37.950;-122.338;2022-11-15T07:49:54;101989.53;;;6.43;69.01
70011;BME280;59543;37.950;-122.338;2022-11-15T07:52:19;101989.72;;;6.40;69.07
70011;BME280;59543;37.950;-122.338;2022-11-15T07:54:46;101995.63;;;6.31;69.23
70011;BME280;59543;37.950;-122.338;2022-11-15T07:57:12;101990.91;;;6.20;69.94
70011;BME280;59543;37.950;-122.338;2022-11-15T07:59:38;101994.81;;;6.14;69.59
70011;BME280;59543;37.950;-122.338;2022-11-15T08:02:04;101988.50;;;6.15;69.65
70011;BME280;59543;37.950;-122.338;2022-11-15T08:04:30;101995.16;;;6.08;70.15
70011;BME280;59543;37.950;-122.338;2022-11-15T08:06:56;101994.31;;;6.08;69.76
70011;BME280;59543;37.950;-122.338;2022-11-15T08:09:22;101995.84;;;6.12;69.53
70011;BME280;59543;37.950;-122.338;2022-11-15T08:11:48;101995.16;;;6.08;69.65
70011;BME280;59543;37.950;-122.338;2022-11-15T08:14:14;101996.88;;;6.09;69.76
70011;BME280;59543;37.950;-122.338;2022-11-15T08:16:40;101993.53;;;6.06;70.13
70011;BME280;59543;37.950;-122.338;2022-11-15T08:19:06;101994.81;;;5.99;70.30
70011;BME280;59543;37.950;-122.338;2022-11-15T08:21:32;102001.97;;;5.98;70.53
70011;BME280;59543;37.950;-122.338;2022-11-15T08:23:58;101999.81;;;5.89;70.85
70011;BME280;59543;37.950;-122.338;2022-11-15T08:26:24;101997.06;;;5.90;70.67
70011;BME280;59543;37.950;-122.338;2022-11-15T08:28:54;101993.72;;;5.87;70.64
70011;BME280;59543;37.950;-122.338;2022-11-15T08:31:20;102000.09;;;5.84;70.65
70011;BME280;59543;37.950;-122.338;2022-11-15T08:33:46;102004.75;;;5.81;71.09
70011;BME280;59543;37.950;-122.338;2022-11-15T08:36:14;101994.47;;;5.73;71.49
70011;BME280;59543;37.950;-122.338;2022-11-15T08:38:41;101991.03;;;5.71;72.36
70011;BME280;59543;37.950;-122.338;2022-11-15T08:41:13;101998.34;;;5.67;72.71
70011;BME280;59543;37.950;-122.338;2022-11-15T08:43:40;101995.25;;;5.75;73.39
70011;BME280;59543;37.950;-122.338;2022-11-15T08:46:05;101990.19;;;6.02;73.17
70011;BME280;59543;37.950;-122.338;2022-11-15T08:48:33;101997.41;;;6.00;72.93
70011;BME280;59543;37.950;-122.338;2022-11-15T08:50:59;102002.75;;;5.84;73.42
70011;BME280;59543;37.950;-122.338;2022-11-15T08:53:25;102002.25;;;5.78;73.57
70011;BME280;59543;37.950;-122.338;2022-11-15T08:55:52;102007.06;;;5.87;73.11
70011;BME280;59543;37.950;-122.338;2022-11-15T08:58:17;102007.22;;;5.84;72.96
70011;BME280;59543;37.950;-122.338;2022-11-15T09:00:44;102001.53;;;5.90;72.61
70011;BME280;59543;37.950;-122.338;2022-11-15T09:03:11;101998.44;;;5.82;72.14
70011;BME280;59543;37.950;-122.338;2022-11-15T09:05:36;101998.97;;;5.72;72.60
70011;BME280;59543;37.950;-122.338;2022-11-15T09:08:03;102010.16;;;5.95;72.77
70011;BME280;59543;37.950;-122.338;2022-11-15T09:10:30;102010.66;;;6.02;72.42
70011;BME280;59543;37.950;-122.338;2022-11-15T09:12:58;102012.84;;;5.95;72.36
70011;BME280;59543;37.950;-122.338;2022-11-15T09:15:25;102009.53;;;5.74;73.19
70011;BME280;59543;37.950;-122.338;2022-11-15T09:17:50;102017.03;;;5.52;73.87
70011;BME280;59543;37.950;-122.338;2022-11-15T09:20:17;102014.88;;;5.42;73.92
70011;BME280;59543;37.950;-122.338;2022-11-15T09:22:43;102010.28;;;5.28;74.35
70011;BME280;59543;37.950;-122.338;2022-11-15T09:25:09;102023.84;;;5.57;73.78
70011;BME280;59543;37.950;-122.338;2022-11-15T09:27:35;102027.53;;;5.70;73.81
70011;BME280;59543;37.950;-122.338;2022-11-15T09:30:01;102023.81;;;5.41;74.84
70011;BME280;59543;37.950;-122.338;2022-11-15T09:32:29;102019.25;;;5.27;75.54
70011;BME280;59543;37.950;-122.338;2022-11-15T09:34:56;102023.91;;;5.40;75.38
70011;BME280;59543;37.950;-122.338;2022-11-15T09:37:22;102014.38;;;5.36;75.51
70011;BME280;59543;37.950;-122.338;2022-11-15T09:39:48;102014.09;;;5.24;75.18
70011;BME280;59543;37.950;-122.338;2022-11-15T09:48:37;102024.25;;;5.34;74.51
70011;BME280;59543;37.950;-122.338;2022-11-15T09:51:14;102021.47;;;5.35;75.09
70011;BME280;59543;37.950;-122.338;2022-11-15T09:53:57;102023.34;;;5.17;75.99
70011;BME280;59543;37.950;-122.338;2022-11-15T09:56:31;102026.00;;;4.84;76.80
70011;BME280;59543;37.950;-122.338;2022-11-15T10:04:49;102023.44;;;5.16;77.41
70011;BME280;59543;37.950;-122.338;2022-11-15T10:10:37;102019.13;;;5.13;76.70
70011;BME280;59543;37.950;-122.338;2022-11-15T10:13:28;102019.75;;;5.18;77.08
70011;BME280;59543;37.950;-122.338;2022-11-15T10:16:07;102015.97;;;5.22;77.34
70011;BME280;59543;37.950;-122.338;2022-11-15T10:18:42;102022.97;;;5.08;77.20
70011;BME280;59543;37.950;-122.338;2022-11-15T10:21:20;102012.38;;;5.39;76.66
70011;BME280;59543;37.950;-122.338;2022-11-15T10:23:48;102019.53;;;5.39;76.96
70011;BME280;59543;37.950;-122.338;2022-11-15T10:26:16;102019.13;;;5.13;77.87
70011;BME280;59543;37.950;-122.338;2022-11-15T10:28:43;102015.03;;;5.23;78.11
70011;BME280;59543;37.950;-122.338;2022-11-15T10:31:27;102013.13;;;5.25;78.48
70011;BME280;59543;37.950;-122.338;2022-11-15T10:36:38;102028.38;;;5.23;78.16
70011;BME280;59543;37.950;-122.338;2022-11-15T10:39:03;102030.41;;;5.18;77.90
70011;BME280;59543;37.950;-122.338;2022-11-15T10:41:32;102022.81;;;5.11;79.01
70011;BME280;59543;37.950;-122.338;2022-11-15T10:46:37;102038.13;;;5.07;78.43
70011;BME280;59543;37.950;-122.338;2022-11-15T10:49:24;102045.00;;;5.11;78.79
70011;BME280;59543;37.950;-122.338;2022-11-15T10:52:19;102039.63;;;5.28;77.80
70011;BME280;59543;37.950;-122.338;2022-11-15T10:55:20;102043.16;;;5.29;78.04
70011;BME280;59543;37.950;-122.338;2022-11-15T10:57:36;102046.97;;;5.41;77.09
70011;BME280;59543;37.950;-122.338;2022-11-15T11:00:27;102050.09;;;5.49;75.88
70011;BME280;59543;37.950;-122.338;2022-11-15T11:05:39;102043.41;;;4.91;78.40
70011;BME280;59543;37.950;-122.338;2022-11-15T11:10:58;102046.88;;;4.76;79.00
70011;BME280;59543;37.950;-122.338;2022-11-15T11:13:27;102048.69;;;4.75;78.63
70011;BME280;59543;37.950;-122.338;2022-11-15T11:30:50;102058.13;;;5.16;76.95
70011;BME280;59543;37.950;-122.338;2022-11-15T11:33:24;102062.44;;;5.18;76.88
70011;BME280;59543;37.950;-122.338;2022-11-15T11:36:36;102060.31;;;5.08;76.55
70011;BME280;59543;37.950;-122.338;2022-11-15T11:47:11;102070.94;;;5.09;76.49
70011;BME280;59543;37.950;-122.338;2022-11-15T11:50:00;102074.06;;;5.00;76.24
70011;BME280;59543;37.950;-122.338;2022-11-15T11:55:20;102075.19;;;4.78;77.41
70011;BME280;59543;37.950;-122.338;2022-11-15T12:00:22;102083.19;;;4.78;76.47
70011;BME280;59543;37.950;-122.338;2022-11-15T12:03:08;102088.13;;;4.86;77.69
70011;BME280;59543;37.950;-122.338;2022-11-15T12:05:44;102086.19;;;4.72;77.93
70011;BME280;59543;37.950;-122.338;2022-11-15T12:11:13;102093.44;;;4.51;78.81
70011;BME280;59543;37.950;-122.338;2022-11-15T12:13:38;102082.63;;;4.18;81.24
70011;BME280;59543;37.950;-122.338;2022-11-15T12:16:12;102096.84;;;4.36;80.35
70011;BME280;59543;37.950;-122.338;2022-11-15T12:18:41;102088.00;;;4.35;80.27
70011;BME280;59543;37.950;-122.338;2022-11-15T12:23:57;102095.38;;;4.11;81.77
70011;BME280;59543;37.950;-122.338;2022-11-15T12:26:33;102092.97;;;4.07;82.33
70011;BME280;59543;37.950;-122.338;2022-11-15T12:29:04;102087.75;;;4.23;81.93
70011;BME280;59543;37.950;-122.338;2022-11-15T12:31:41;102086.94;;;4.40;81.68
70011;BME280;59543;37.950;-122.338;2022-11-15T12:34:50;102086.16;;;4.55;80.10
70011;BME280;59543;37.950;-122.338;2022-11-15T12:37:47;102088.03;;;4.70;78.88
70011;BME280;59543;37.950;-122.338;2022-11-15T12:40:28;102090.22;;;4.62;79.81
70011;BME280;59543;37.950;-122.338;2022-11-15T12:45:43;102082.38;;;4.42;79.74
70011;BME280;59543;37.950;-122.338;2022-11-15T13:06:54;102075.09;;;4.80;78.62
70011;BME280;59543;37.950;-122.338;2022-11-15T13:14:56;102077.69;;;4.64;77.79
70011;BME280;59543;37.950;-122.338;2022-11-15T13:17:36;102081.53;;;4.58;77.49
70011;BME280;59543;37.950;-122.338;2022-11-15T13:31:42;102086.75;;;4.25;80.84
70011;BME280;59543;37.950;-122.338;2022-11-15T13:36:50;102085.22;;;4.56;78.91
70011;BME280;59543;37.950;-122.338;2022-11-15T13:39:31;102080.28;;;4.66;78.84
70011;BME280;59543;37.950;-122.338;2022-11-15T13:41:59;102083.72;;;4.68;78.35
70011;BME280;59543;37.950;-122.338;2022-11-15T13:44:27;102078.19;;;4.72;77.64
70011;BME280;59543;37.950;-122.338;2022-11-15T13:49:34;102081.22;;;4.99;76.56
70011;BME280;59543;37.950;-122.338;2022-11-15T13:52:04;102086.84;;;5.11;76.03
70011;BME280;59543;37.950;-122.338;2022-11-15T13:59:51;102099.41;;;5.09;75.86
70011;BME280;59543;37.950;-122.338;2022-11-15T14:02:29;102096.16;;;5.19;75.74
70011;BME280;59543;37.950;-122.338;2022-11-15T14:05:04;102091.50;;;5.23;76.39
70011;BME280;59543;37.950;-122.338;2022-11-15T14:07:37;102095.13;;;5.22;75.66
70011;BME280;59543;37.950;-122.338;2022-11-15T14:10:36;102099.94;;;5.15;76.25
70011;BME280;59543;37.950;-122.338;2022-11-15T14:13:04;102102.44;;;5.18;76.78
70011;BME280;59543;37.950;-122.338;2022-11-15T14:15:39;102098.53;;;5.08;77.74
70011;BME280;59543;37.950;-122.338;2022-11-15T14:18:06;102096.34;;;4.99;78.90
70011;BME280;59543;37.950;-122.338;2022-11-15T14:20:34;102110.47;;;5.01;80.26
70011;BME280;59543;37.950;-122.338;2022-11-15T14:23:03;102108.59;;;5.03;80.57
70011;BME280;59543;37.950;-122.338;2022-11-15T14:25:32;102105.44;;;5.12;81.14
70011;BME280;59543;37.950;-122.338;2022-11-15T14:28:31;102110.28;;;5.21;81.63
70011;BME280;59543;37.950;-122.338;2022-11-15T14:30:59;102110.78;;;5.12;82.64
70011;BME280;59543;37.950;-122.338;2022-11-15T14:33:36;102108.00;;;5.31;82.21
70011;BME280;59543;37.950;-122.338;2022-11-15T14:36:14;102116.16;;;5.28;82.79
70011;BME280;59543;37.950;-122.338;2022-11-15T14:38:40;102119.69;;;5.28;82.56
70011;BME280;59543;37.950;-122.338;2022-11-15T14:41:21;102118.78;;;5.45;81.91
70011;BME280;59543;37.950;-122.338;2022-11-15T14:43:48;102126.28;;;5.21;82.33
70011;BME280;59543;37.950;-122.338;2022-11-15T14:46:15;102119.50;;;5.32;82.76
70011;BME280;59543;37.950;-122.338;2022-11-15T14:48:41;102127.47;;;5.33;82.26
70011;BME280;59543;37.950;-122.338;2022-11-15T14:51:11;102134.94;;;5.26;82.49